Terminal Aerodrome Forecast
Issued by NWS

Home | Current Version | Previous Version | Text Only | Print | Product List | Glossary On
Versions: 1 2 3 4 5 6 7 8 9 10 11 12 13 14 15 16 17
000
FTUS44 KLZK 301100
TAFHOT
TAF
KHOT 301134Z 3012/3112 27005KT P6SM BKN025 OVC050
     FM301500 29006KT P6SM VCSH BKN025 OVC050
     FM301800 30009KT P6SM VCSH SCT015 BKN050 OVC100
     FM302000 29009KT P6SM VCTS BKN040CB OVC250=

USA.gov is the U.S. government's official web portal to all federal, state and local government web resources and services.